Time;durP1;ratioP1;P1;durP2;ratioP2;P2;SDS_P1;SDS_P2;PMS_P1;PMS_P2;Temp;Humidity;BMP_temperature;BMP_pressure;BME280_temperature;BME280_humidity;BME280_pressure;Samples;Min_cycle;Max_cycle;Signal;HPM_P1;HPM_P2
2022/07/23 00:00:05;;;;;;;;;;;;;;;26.21;60.61;99618.56;4487874;32;19989;-90
2022/07/23 00:02:31;;;;;;;;;;;;;;;26.21;60.62;99619.37;4486375;32;20333;-90
2022/07/23 00:04:56;;;;;;;;;;;;;;;26.28;60.61;99612.47;4472537;32;27066;-90
2022/07/23 00:07:21;;;;;;;;;;;;;;;26.10;60.61;99610.78;4472730;32;23518;-90
2022/07/23 00:09:46;;;;;;;;;;;;;;;26.01;60.61;99607.19;4472749;32;20041;-89
2022/07/23 00:12:11;;;;;;;;;;;;;;;26.22;60.61;99606.88;4472708;32;20605;-90
2022/07/23 00:14:37;;;;;;;;;;;;;;;26.23;60.62;99603.22;4472194;32;30603;-90
2022/07/23 00:17:02;;;;;;;;;;;;;;;26.08;60.61;99605.59;4472124;32;31859;-90
2022/07/23 00:19:28;;;;;;;;;;;;;;;26.03;60.61;99607.91;4485846;32;20028;-89
2022/07/23 00:21:54;;;;;;;;;;;;;;;25.92;60.61;99610.75;4472926;32;20329;-90
2022/07/23 00:24:19;;;;;;;;;;;;;;;25.96;60.60;99604.97;4486077;32;20020;-90
2022/07/23 00:26:44;;;;;;;;;;;;;;;26.06;60.61;99601.41;4472577;32;25870;-90
2022/07/23 00:29:09;;;;;;;;;;;;;;;25.88;60.60;99604.87;4472168;32;27011;-90
2022/07/23 00:31:34;;;;;;;;;;;;;;;25.97;60.60;99609.31;4486066;32;20364;-90
2022/07/23 00:34:01;;;;;;;;;;;;;;;25.87;60.60;99605.88;4472188;31;26528;-90
2022/07/23 00:36:26;;;;;;;;;;;;;;;25.63;60.59;99616.22;4472998;32;20524;-90
2022/07/23 00:38:51;;;;;;;;;;;;;;;25.70;60.59;99612.84;4473042;32;20006;-90
2022/07/23 00:41:17;;;;;;;;;;;;;;;25.61;60.59;99618.22;4485632;32;19980;-89
2022/07/23 00:43:42;;;;;;;;;;;;;;;25.72;60.59;99618.03;4472818;32;19995;-90
2022/07/23 00:46:07;;;;;;;;;;;;;;;25.81;60.60;99610.97;4484689;32;24550;-90
2022/07/23 00:48:33;;;;;;;;;;;;;;;25.79;60.60;99616.47;4487086;31;20300;-90
2022/07/23 00:50:58;;;;;;;;;;;;;;;25.86;60.60;99614.03;4487069;32;19960;-90
2022/07/23 00:53:23;;;;;;;;;;;;;;;25.92;60.61;99613.44;4472373;32;20004;-89
2022/07/23 00:55:48;;;;;;;;;;;;;;;25.78;60.60;99616.59;4472407;32;20000;-90
2022/07/23 00:58:14;;;;;;;;;;;;;;;25.60;60.58;99612.03;4485664;32;19976;-89
2022/07/23 01:00:39;;;;;;;;;;;;;;;25.54;60.59;99614.44;4472471;32;20057;-90
2022/07/23 01:03:05;;;;;;;;;;;;;;;25.65;60.59;99616.94;4485586;32;20004;-90
2022/07/23 01:05:30;;;;;;;;;;;;;;;25.65;60.59;99612.44;4485965;32;19989;-89
2022/07/23 01:07:55;;;;;;;;;;;;;;;25.66;60.59;99606.13;4486851;32;19977;-89
2022/07/23 01:10:33;;;;;;;;;;;;;;;25.66;60.59;99605.28;4472554;32;19995;-89
2022/07/23 01:12:59;;;;;;;;;;;;;;;25.55;60.58;99616.12;4485833;32;20002;-90
2022/07/23 01:15:24;;;;;;;;;;;;;;;25.56;60.58;99610.66;4485564;32;20015;-89
2022/07/23 01:17:49;;;;;;;;;;;;;;;25.59;60.58;99613.03;4485511;32;20015;-89
2022/07/23 01:20:14;;;;;;;;;;;;;;;25.60;60.58;99614.72;4472327;32;19995;-89
2022/07/23 01:22:40;;;;;;;;;;;;;;;25.43;60.57;99614.66;4485497;32;20018;-90
2022/07/23 01:25:05;;;;;;;;;;;;;;;25.17;60.56;99609.97;4472101;32;20010;-90
2022/07/23 01:27:30;;;;;;;;;;;;;;;25.33;60.57;99607.53;4485448;32;19968;-89
2022/07/23 01:29:56;;;;;;;;;;;;;;;25.37;60.58;99611.59;4471681;32;26190;-90
2022/07/23 01:32:22;;;;;;;;;;;;;;;25.27;60.56;99615.25;4472462;32;20322;-89
2022/07/23 01:34:47;;;;;;;;;;;;;;;25.36;60.57;99615.25;4472246;32;20328;-90
2022/07/23 01:37:12;;;;;;;;;;;;;;;25.35;60.57;99613.56;4480491;32;19972;-89
2022/07/23 01:39:37;;;;;;;;;;;;;;;25.27;60.56;99613.44;4487810;32;19977;-90
2022/07/23 01:42:02;;;;;;;;;;;;;;;25.17;60.57;99617.97;4485904;32;19992;-89
2022/07/23 01:44:28;;;;;;;;;;;;;;;25.06;60.56;99612.81;4472708;32;20004;-90
2022/07/23 01:46:53;;;;;;;;;;;;;;;25.00;60.56;99613.37;4485544;32;19976;-89
2022/07/23 01:49:18;;;;;;;;;;;;;;;25.12;60.55;99614.06;4485340;32;19964;-90
2022/07/23 01:51:59;;;;;;;;;;;;;;;25.04;60.55;99612.94;4472442;32;19991;-90
2022/07/23 01:54:24;;;;;;;;;;;;;;;25.08;60.56;99613.53;4485943;32;19994;-89
2022/07/23 01:56:50;;;;;;;;;;;;;;;24.90;60.56;99610.72;4486750;31;20015;-90
2022/07/23 01:59:15;;;;;;;;;;;;;;;25.01;60.55;99605.25;4485036;32;22390;-90
2022/07/23 02:01:40;;;;;;;;;;;;;;;24.87;60.54;99604.84;4484895;32;28322;-89
2022/07/23 02:04:05;;;;;;;;;;;;;;;24.84;60.55;99608.62;4471941;32;26600;-90
2022/07/23 02:06:30;;;;;;;;;;;;;;;24.82;60.54;99591.94;4471837;32;20878;-89
2022/07/23 02:08:56;;;;;;;;;;;;;;;24.73;60.53;99598.16;4471680;32;25212;-89
2022/07/23 02:11:21;;;;;;;;;;;;;;;24.74;60.53;99607.81;4471844;32;21453;-89
2022/07/23 02:13:46;;;;;;;;;;;;;;;24.85;60.55;99601.50;4472268;32;19988;-90
2022/07/23 02:16:11;;;;;;;;;;;;;;;24.73;60.54;99609.63;4485076;32;20017;-89
2022/07/23 02:18:37;;;;;;;;;;;;;;;24.65;60.53;99611.34;4486241;32;19973;-89
2022/07/23 02:21:02;;;;;;;;;;;;;;;24.57;60.52;99604.03;4486267;31;20010;-90
2022/07/23 02:23:27;;;;;;;;;;;;;;;24.53;60.53;99615.13;4485014;32;19980;-90
2022/07/23 02:25:52;;;;;;;;;;;;;;;24.57;60.53;99605.88;4471967;32;20023;-90
2022/07/23 02:28:18;;;;;;;;;;;;;;;24.68;60.54;99608.38;4484346;32;24928;-89
2022/07/23 02:30:43;;;;;;;;;;;;;;;24.79;60.54;99611.72;4484992;32;20325;-89
2022/07/23 02:33:08;;;;;;;;;;;;;;;24.52;60.53;99608.12;4485068;32;19984;-89
2022/07/23 02:35:34;;;;;;;;;;;;;;;24.60;60.54;99609.06;4484751;32;19992;-89
2022/07/23 02:37:59;;;;;;;;;;;;;;;24.49;60.52;99611.91;4471758;32;19984;-89
2022/07/23 02:40:24;;;;;;;;;;;;;;;24.36;60.52;99617.50;4471309;32;22180;-90
2022/07/23 02:42:49;;;;;;;;;;;;;;;24.56;60.53;99620.16;4471829;32;20036;-90
2022/07/23 02:45:14;;;;;;;;;;;;;;;24.45;60.53;99619.34;4471510;32;19981;-89
2022/07/23 02:47:40;;;;;;;;;;;;;;;24.49;60.52;99619.87;4484615;32;20037;-90
2022/07/23 02:50:06;;;;;;;;;;;;;;;24.52;60.53;99613.44;4484271;32;20246;-90
2022/07/23 02:52:32;;;;;;;;;;;;;;;24.23;60.51;99616.91;4484401;32;20015;-89
2022/07/23 02:54:57;;;;;;;;;;;;;;;24.44;60.53;99616.81;4484446;32;20313;-89
2022/07/23 02:57:22;;;;;;;;;;;;;;;24.18;60.51;99609.38;4471075;32;19964;-90
2022/07/23 02:59:47;;;;;;;;;;;;;;;24.14;60.51;99612.44;4484405;32;20003;-90
2022/07/23 03:02:13;;;;;;;;;;;;;;;24.13;60.52;99610.72;4483859;32;25035;-89
2022/07/23 03:04:38;;;;;;;;;;;;;;;24.05;60.51;99616.75;4471207;32;20036;-90
2022/07/23 03:07:03;;;;;;;;;;;;;;;24.08;60.51;99608.50;4485220;32;20317;-90
2022/07/23 03:09:28;;;;;;;;;;;;;;;23.98;60.50;99610.31;4488291;32;19988;-90
2022/07/23 03:11:54;;;;;;;;;;;;;;;24.20;60.52;99619.84;4473484;32;19985;-90
2022/07/23 03:14:19;;;;;;;;;;;;;;;24.33;60.52;99603.63;4473143;32;20023;-90
2022/07/23 03:16:44;;;;;;;;;;;;;;;24.30;60.52;99614.56;4472968;32;19990;-90
2022/07/23 03:19:09;;;;;;;;;;;;;;;24.30;60.51;99604.75;4473090;32;20037;-90
2022/07/23 03:21:38;;;;;;;;;;;;;;;24.38;60.52;99606.75;4486699;32;19984;-90
2022/07/23 03:24:04;;;;;;;;;;;;;;;24.17;60.51;99601.53;4476116;32;20055;-89
2022/07/23 03:26:29;;;;;;;;;;;;;;;24.11;60.51;99610.88;4473576;32;19999;-89
2022/07/23 03:28:54;;;;;;;;;;;;;;;24.32;60.52;99609.94;4486263;32;20019;-89
2022/07/23 03:31:19;;;;;;;;;;;;;;;24.18;60.51;99601.38;4473163;32;20034;-89
2022/07/23 03:33:45;;;;;;;;;;;;;;;24.30;60.52;99598.59;4472666;31;20023;-90
2022/07/23 03:36:10;;;;;;;;;;;;;;;24.30;60.52;99602.09;4486214;32;19976;-90
2022/07/23 03:38:35;;;;;;;;;;;;;;;24.52;60.53;99597.47;4473068;32;20001;-89
2022/07/23 03:41:00;;;;;;;;;;;;;;;24.32;60.51;99609.94;4486435;32;20304;-90
2022/07/23 03:43:26;;;;;;;;;;;;;;;24.34;60.51;99615.97;4487091;32;19992;-89
2022/07/23 03:45:51;;;;;;;;;;;;;;;24.42;60.52;99608.12;4487698;32;19977;-89
2022/07/23 03:48:16;;;;;;;;;;;;;;;24.49;60.52;99610.09;4486154;32;20000;-89
2022/07/23 03:50:41;;;;;;;;;;;;;;;24.65;60.53;99612.19;4487078;32;21716;-90
2022/07/23 03:53:07;;;;;;;;;;;;;;;24.80;60.53;99609.91;4485603;32;25740;-89
2022/07/23 03:55:32;;;;;;;;;;;;;;;24.93;60.55;99613.09;4485838;32;21207;-90
2022/07/23 03:57:57;;;;;;;;;;;;;;;25.33;60.57;99615.53;4472407;32;31031;-89
2022/07/23 04:00:22;;;;;;;;;;;;;;;25.39;60.57;99606.94;4485606;32;25413;-90
2022/07/23 04:02:47;;;;;;;;;;;;;;;25.24;60.57;99610.22;4485582;32;27087;-89
2022/07/23 04:05:13;;;;;;;;;;;;;;;25.29;60.58;99608.78;4485313;32;28762;-90
2022/07/23 04:07:38;;;;;;;;;;;;;;;25.40;60.58;99611.28;4485685;32;20227;-89
2022/07/23 04:10:03;;;;;;;;;;;;;;;25.62;60.58;99604.75;4472609;32;19992;-90
2022/07/23 04:12:28;;;;;;;;;;;;;;;25.62;60.59;99614.56;4486124;32;19973;-89
2022/07/23 04:14:54;;;;;;;;;;;;;;;25.78;60.59;99612.09;4472353;32;20866;-90
2022/07/23 04:17:19;;;;;;;;;;;;;;;25.74;60.59;99609.88;4486369;32;27538;-89
2022/07/23 04:19:44;;;;;;;;;;;;;;;25.87;60.59;99613.88;4485118;32;19985;-89
2022/07/23 04:22:12;;;;;;;;;;;;;;;25.84;60.58;99610.69;4486635;32;20026;-89
2022/07/23 04:24:37;;;;;;;;;;;;;;;25.77;60.60;99612.25;4486024;32;19977;-90
2022/07/23 04:27:03;;;;;;;;;;;;;;;25.83;60.59;99609.84;4485963;32;20012;-89
2022/07/23 04:29:28;;;;;;;;;;;;;;;25.81;60.59;99618.97;4486128;32;20276;-89
2022/07/23 04:31:53;;;;;;;;;;;;;;;26.01;60.60;99616.00;4486049;32;19976;-89
2022/07/23 04:34:18;;;;;;;;;;;;;;;26.16;60.60;99618.19;4485645;32;22808;-90
2022/07/23 04:36:44;;;;;;;;;;;;;;;26.18;60.62;99618.84;4487094;32;20032;-89
2022/07/23 04:39:09;;;;;;;;;;;;;;;26.24;60.62;99620.91;4485178;32;24609;-90
2022/07/23 04:41:34;;;;;;;;;;;;;;;26.22;60.61;99618.41;4486391;32;26204;-89
2022/07/23 04:44:00;;;;;;;;;;;;;;;26.34;60.62;99615.50;4486305;32;31390;-89
2022/07/23 04:46:25;;;;;;;;;;;;;;;26.48;60.63;99615.81;4485819;32;19995;-89
2022/07/23 04:48:50;;;;;;;;;;;;;;;26.33;60.62;99617.34;4487031;32;20313;-89
2022/07/23 04:51:15;;;;;;;;;;;;;;;26.55;60.64;99619.56;4485048;32;26945;-89
2022/07/23 04:53:40;;;;;;;;;;;;;;;26.45;60.62;99620.63;4485831;32;20024;-90
2022/07/23 04:56:06;;;;;;;;;;;;;;;26.45;60.63;99621.47;4471710;32;33331;-90
2022/07/23 04:58:31;;;;;;;;;;;;;;;26.59;60.63;99620.09;4472507;32;20000;-89
2022/07/23 05:00:57;;;;;;;;;;;;;;;26.60;60.63;99621.78;4485927;32;20369;-90
2022/07/23 05:03:22;;;;;;;;;;;;;;;26.52;60.62;99622.56;4485718;32;19983;-89
2022/07/23 05:05:48;;;;;;;;;;;;;;;26.54;60.62;99619.72;4485017;32;29446;-90
2022/07/23 05:08:13;;;;;;;;;;;;;;;26.78;60.64;99619.94;4494818;32;20003;-89
2022/07/23 05:10:38;;;;;;;;;;;;;;;27.03;60.66;99614.78;4486309;32;19973;-89
2022/07/23 05:13:03;;;;;;;;;;;;;;;26.91;60.64;99608.81;4485711;32;20242;-89
2022/07/23 05:15:29;;;;;;;;;;;;;;;27.05;60.66;99613.63;4485766;32;20007;-90
2022/07/23 05:17:54;;;;;;;;;;;;;;;27.21;60.67;99612.87;4472563;32;20253;-90
2022/07/23 05:20:20;;;;;;;;;;;;;;;27.33;60.67;99619.63;4485753;32;19981;-90
2022/07/23 05:22:45;;;;;;;;;;;;;;;27.55;60.68;99617.38;4472537;32;19972;-89
2022/07/23 05:25:10;;;;;;;;;;;;;;;27.88;60.69;99613.84;4485418;32;20008;-90
2022/07/23 05:27:35;;;;;;;;;;;;;;;27.95;60.70;99609.53;4472459;32;19989;-90
2022/07/23 05:30:01;;;;;;;;;;;;;;;28.13;60.71;99620.06;4485576;32;19980;-90
2022/07/23 05:32:26;;;;;;;;;;;;;;;28.19;60.71;99614.09;4485199;32;19984;-90
2022/07/23 05:34:51;;;;;;;;;;;;;;;28.42;60.72;99611.63;4471786;32;21272;-90
2022/07/23 05:37:16;;;;;;;;;;;;;;;28.56;60.74;99607.44;4485295;32;20015;-91
2022/07/23 05:39:42;;;;;;;;;;;;;;;28.77;60.73;99612.28;4472322;32;19999;-91
2022/07/23 05:42:07;;;;;;;;;;;;;;;29.18;60.76;99607.72;4485716;32;20025;-91
2022/07/23 05:44:32;;;;;;;;;;;;;;;29.35;60.77;99604.00;4472490;32;19988;-91
2022/07/23 05:46:58;;;;;;;;;;;;;;;29.50;60.77;99602.25;4472668;32;19980;-91
2022/07/23 05:49:23;;;;;;;;;;;;;;;29.45;60.78;99604.63;4472073;32;20028;-91
2022/07/23 05:51:48;;;;;;;;;;;;;;;29.57;60.78;99611.28;4472397;32;20294;-91
2022/07/23 05:54:13;;;;;;;;;;;;;;;29.82;60.79;99605.81;4472469;32;20000;-91
2022/07/23 05:56:39;;;;;;;;;;;;;;;30.06;60.80;99608.38;4485756;32;20029;-90
2022/07/23 05:59:04;;;;;;;;;;;;;;;30.19;60.82;99600.56;4472801;32;20341;-91
2022/07/23 06:01:29;;;;;;;;;;;;;;;30.20;60.82;99598.72;4473080;32;19980;-92
2022/07/23 06:03:54;;;;;;;;;;;;;;;30.27;60.81;99598.81;4472541;32;19992;-92
2022/07/23 06:06:20;;;;;;;;;;;;;;;30.46;60.83;99596.50;4485534;32;20387;-93
2022/07/23 06:08:45;;;;;;;;;;;;;;;30.50;60.83;99588.91;4485329;32;20017;-92
2022/07/23 06:11:10;;;;;;;;;;;;;;;30.68;60.84;99585.94;4472309;32;20004;-93
2022/07/23 06:13:35;;;;;;;;;;;;;;;30.72;60.83;99587.22;4472221;32;20012;-92
2022/07/23 06:16:01;;;;;;;;;;;;;;;30.88;60.84;99584.38;4471999;32;20006;-93
2022/07/23 06:18:26;;;;;;;;;;;;;;;31.11;60.86;99582.47;4472000;32;20014;-93
2022/07/23 06:20:51;;;;;;;;;;;;;;;31.19;60.86;99583.41;4472142;32;20005;-93
2022/07/23 06:23:16;;;;;;;;;;;;;;;31.29;60.86;99578.59;4472373;32;19984;-93
2022/07/23 06:25:42;;;;;;;;;;;;;;;31.43;60.87;99578.56;4471934;32;20249;-93
2022/07/23 06:28:07;;;;;;;;;;;;;;;31.64;60.89;99582.34;4472407;32;20006;-93
2022/07/23 06:30:33;;;;;;;;;;;;;;;31.83;60.89;99570.19;4472054;32;19984;-93
2022/07/23 06:32:58;;;;;;;;;;;;;;;31.91;60.90;99573.56;4471836;32;19989;-92
2022/07/23 06:35:23;;;;;;;;;;;;;;;32.00;60.90;99577.00;4471603;32;19996;-92
2022/07/23 06:37:48;;;;;;;;;;;;;;;32.09;60.90;99575.84;4471925;32;20054;-92
2022/07/23 06:40:14;;;;;;;;;;;;;;;32.21;60.92;99571.63;4471847;32;19968;-92
2022/07/23 06:42:39;;;;;;;;;;;;;;;32.38;60.92;99569.50;4484910;32;20010;-92
2022/07/23 06:45:05;;;;;;;;;;;;;;;32.61;60.93;99572.81;4488174;32;19991;-92
2022/07/23 06:47:30;;;;;;;;;;;;;;;32.86;60.94;99573.22;4488202;31;20133;-92
2022/07/23 06:49:55;;;;;;;;;;;;;;;33.27;60.96;99569.72;4477194;32;20394;-92
2022/07/23 06:52:21;;;;;;;;;;;;;;;33.40;60.97;99571.72;4495739;32;20004;-93
2022/07/23 06:54:46;;;;;;;;;;;;;;;33.69;60.98;99566.00;4483796;32;19988;-92
2022/07/23 06:57:11;;;;;;;;;;;;;;;34.02;60.99;99568.81;4489534;32;20096;-92
2022/07/23 06:59:40;;;;;;;;;;;;;;;34.27;61.00;99566.34;4487185;32;20401;-92
2022/07/23 07:02:05;;;;;;;;;;;;;;;34.27;61.00;99565.50;4474228;32;20056;-92
2022/07/23 07:04:31;;;;;;;;;;;;;;;34.35;61.01;99563.50;4487515;32;20296;-92
2022/07/23 07:06:56;;;;;;;;;;;;;;;34.59;61.02;99556.63;4474107;32;19972;-92
2022/07/23 07:09:22;;;;;;;;;;;;;;;34.82;61.04;99548.06;4473450;32;19978;-92
2022/07/23 07:11:47;;;;;;;;;;;;;;;34.94;61.04;99553.69;4486872;32;19996;-92
2022/07/23 07:14:12;;;;;;;;;;;;;;;35.01;61.05;99541.78;4486550;32;24342;-93
2022/07/23 07:16:37;;;;;;;;;;;;;;;35.05;61.04;99547.62;4486798;32;19995;-92
2022/07/23 07:19:03;;;;;;;;;;;;;;;35.26;61.06;99546.53;4473841;32;20011;-92
2022/07/23 07:21:28;;;;;;;;;;;;;;;35.27;61.06;99549.03;4486593;32;19985;-92
2022/07/23 07:23:53;;;;;;;;;;;;;;;35.41;61.07;99543.56;4486660;32;20003;-92
2022/07/23 07:26:18;;;;;;;;;;;;;;;35.77;61.08;99540.28;4473344;32;19980;-92
2022/07/23 07:28:44;;;;;;;;;;;;;;;35.97;61.10;99541.84;4486407;32;19961;-92
2022/07/23 07:31:09;;;;;;;;;;;;;;;36.03;61.09;99537.44;4487719;32;20234;-92
2022/07/23 07:33:34;;;;;;;;;;;;;;;36.18;61.10;99543.34;4486564;32;20002;-92
2022/07/23 07:36:00;;;;;;;;;;;;;;;36.31;61.11;99542.44;4487510;32;19972;-92
2022/07/23 07:38:25;;;;;;;;;;;;;;;36.63;61.14;99540.50;4486529;32;20010;-91
2022/07/23 07:40:50;;;;;;;;;;;;;;;36.54;61.13;99533.72;4472708;32;21759;-91
2022/07/23 07:43:16;;;;;;;;;;;;;;;36.66;61.13;99528.37;4487646;32;20245;-92
2022/07/23 07:45:41;;;;;;;;;;;;;;;36.67;61.13;99536.28;4487539;32;19981;-92
2022/07/23 07:48:06;;;;;;;;;;;;;;;36.80;61.14;99530.75;4473022;32;20294;-92
2022/07/23 07:50:31;;;;;;;;;;;;;;;36.98;61.15;99534.56;4473210;32;19980;-92
2022/07/23 07:52:57;;;;;;;;;;;;;;;37.30;61.16;99529.81;4486590;32;19980;-92
2022/07/23 07:55:22;;;;;;;;;;;;;;;37.33;61.16;99523.91;4472397;32;30328;-92
2022/07/23 07:57:47;;;;;;;;;;;;;;;37.53;61.17;99521.78;4473205;32;19981;-92
2022/07/23 08:00:12;;;;;;;;;;;;;;;37.65;61.18;99528.09;4472979;32;20401;-92
2022/07/23 08:02:44;;;;;;;;;;;;;;;37.79;61.18;99526.03;4486397;32;20262;-92
2022/07/23 08:05:10;;;;;;;;;;;;;;;37.77;61.19;99526.28;4487554;31;19981;-92
2022/07/23 08:07:35;;;;;;;;;;;;;;;37.75;61.17;99524.84;4473138;32;19999;-92
2022/07/23 08:10:00;;;;;;;;;;;;;;;37.90;61.19;99522.53;4473182;32;20035;-92
2022/07/23 08:12:25;;;;;;;;;;;;;;;38.07;61.19;99520.78;4473208;32;19999;-92
2022/07/23 08:14:51;;;;;;;;;;;;;;;38.23;61.20;99524.75;4487386;32;20366;-92
2022/07/23 08:17:16;;;;;;;;;;;;;;;38.10;61.20;99524.97;4472871;32;20300;-91
2022/07/23 08:19:42;;;;;;;;;;;;;;;38.25;61.21;99528.06;4472989;32;20007;-93
2022/07/23 08:22:07;;;;;;;;;;;;;;;38.50;61.22;99514.25;4473367;32;20007;-92
2022/07/23 08:24:32;;;;;;;;;;;;;;;38.56;61.21;99516.00;4486329;32;20238;-93
2022/07/23 08:26:57;;;;;;;;;;;;;;;38.73;61.22;99521.59;4473451;32;19972;-93
2022/07/23 08:29:23;;;;;;;;;;;;;;;38.93;61.24;99522.06;4472838;32;20300;-93
2022/07/23 08:31:48;;;;;;;;;;;;;;;39.09;61.24;99516.97;4473331;32;20011;-93
2022/07/23 08:34:13;;;;;;;;;;;;;;;39.10;61.25;99519.47;4473154;32;19999;-93
2022/07/23 08:36:38;;;;;;;;;;;;;;;39.36;61.26;99523.53;4475204;32;20087;-93
2022/07/23 08:39:04;;;;;;;;;;;;;;;39.61;61.27;99525.12;4482584;32;19976;-92
2022/07/23 08:41:29;;;;;;;;;;;;;;;39.88;61.29;99521.53;4477099;32;20269;-93
2022/07/23 08:43:54;;;;;;;;;;;;;;;40.07;61.30;99519.44;4486440;32;20005;-93
2022/07/23 08:46:20;;;;;;;;;;;;;;;40.16;61.29;99517.94;4486192;32;19965;-93
2022/07/23 08:48:47;;;;;;;;;;;;;;;40.36;61.30;99517.47;4485892;32;20060;-93
2022/07/23 08:51:12;;;;;;;;;;;;;;;40.54;61.32;99513.66;4486097;32;20012;-93
2022/07/23 08:53:38;;;;;;;;;;;;;;;40.42;61.30;99524.66;4486451;32;19999;-93
2022/07/23 08:56:05;;;;;;;;;;;;;;;40.62;61.32;99515.97;4473238;32;19980;-93
2022/07/23 08:58:30;;;;;;;;;;;;;;;40.77;61.32;99512.63;4473233;32;19996;-93
2022/07/23 09:00:56;;;;;;;;;;;;;;;40.94;61.32;99504.44;4473389;32;20035;-93
2022/07/23 09:03:25;;;;;;;;;;;;;;;41.10;61.34;99500.81;4473121;32;20267;-93
2022/07/23 09:05:50;;;;;;;;;;;;;;;41.25;61.34;99495.56;4473126;32;19998;-93
2022/07/23 09:08:16;;;;;;;;;;;;;;;41.35;61.35;99505.75;4486161;32;19992;-93
2022/07/23 09:10:42;;;;;;;;;;;;;;;41.07;61.34;99498.59;4473359;32;20033;-93
2022/07/23 09:13:19;;;;;;;;;;;;;;;41.32;61.35;99498.09;4473324;32;19988;-93
2022/07/23 09:15:48;;;;;;;;;;;;;;;41.37;61.35;99495.41;4473226;32;20043;-93
2022/07/23 09:18:15;;;;;;;;;;;;;;;41.49;61.36;99504.28;4473234;32;19992;-93
2022/07/23 09:20:40;;;;;;;;;;;;;;;41.56;61.35;99499.44;4486369;32;19989;-93
2022/07/23 09:23:05;;;;;;;;;;;;;;;41.67;61.36;99506.72;4473013;32;19984;-93
2022/07/23 09:25:31;;;;;;;;;;;;;;;41.79;61.37;99500.25;4486337;32;20023;-93
2022/07/23 09:27:57;;;;;;;;;;;;;;;41.89;61.37;99494.88;4472844;32;20318;-93
2022/07/23 09:30:23;;;;;;;;;;;;;;;41.82;61.37;99500.53;4486423;32;19971;-93
2022/07/23 09:33:03;;;;;;;;;;;;;;;41.91;61.37;99487.25;4473468;32;20052;-93
2022/07/23 09:35:47;;;;;;;;;;;;;;;41.88;61.37;99499.53;4487255;31;19983;-93
2022/07/23 09:38:12;;;;;;;;;;;;;;;41.94;61.37;99500.38;4486162;32;20043;-93
2022/07/23 09:40:38;;;;;;;;;;;;;;;41.91;61.37;99492.72;4486683;32;19972;-93
2022/07/23 09:43:03;;;;;;;;;;;;;;;41.95;61.38;99493.84;4473140;32;20015;-93
2022/07/23 09:45:28;;;;;;;;;;;;;;;42.00;61.38;99493.88;4473271;32;20229;-93
2022/07/23 09:48:09;;;;;;;;;;;;;;;42.18;61.38;99489.94;4486141;32;20029;-93
2022/07/23 09:50:34;;;;;;;;;;;;;;;42.21;61.39;99481.22;4472986;32;20006;-93
2022/07/23 09:53:00;;;;;;;;;;;;;;;42.06;61.39;99483.78;4472502;32;20856;-92
2022/07/23 09:55:31;;;;;;;;;;;;;;;41.73;61.37;99487.62;4486288;32;19980;-93
2022/07/23 09:57:58;;;;;;;;;;;;;;;41.80;61.37;99485.50;4486054;32;19988;-92
2022/07/23 10:00:23;;;;;;;;;;;;;;;41.93;61.39;99482.34;4472888;32;19993;-92
2022/07/23 10:02:49;;;;;;;;;;;;;;;41.99;61.38;99479.38;4472364;32;20358;-93
2022/07/23 10:05:14;;;;;;;;;;;;;;;42.12;61.40;99472.69;4472375;32;22624;-93
2022/07/23 10:07:39;;;;;;;;;;;;;;;42.32;61.39;99469.25;4472752;32;20004;-93
2022/07/23 10:10:05;;;;;;;;;;;;;;;42.53;61.40;99475.69;4472774;32;19988;-93
2022/07/23 10:12:45;;;;;;;;;;;;;;;42.64;61.41;99466.47;4485933;32;19995;-94
2022/07/23 10:15:10;;;;;;;;;;;;;;;42.75;61.42;99462.69;4474736;32;19953;-92
2022/07/23 10:17:35;;;;;;;;;;;;;;;42.99;61.42;99459.53;4485310;32;20011;-92
2022/07/23 10:20:01;;;;;;;;;;;;;;;42.98;61.42;99461.44;4485510;32;20020;-92
2022/07/23 10:22:37;;;;;;;;;;;;;;;42.91;61.42;99460.06;4486281;32;19980;-93
2022/07/23 10:25:21;;;;;;;;;;;;;;;42.59;61.41;99464.53;4480324;32;20000;-93
2022/07/23 10:28:05;;;;;;;;;;;;;;;42.65;61.40;99457.16;4493822;31;19992;-93
2022/07/23 10:30:42;;;;;;;;;;;;;;;42.84;61.43;99457.53;4486252;32;20007;-94
2022/07/23 10:33:26;;;;;;;;;;;;;;;42.88;61.42;99455.94;4485246;32;19997;-93
2022/07/23 10:36:10;;;;;;;;;;;;;;;42.93;61.42;99446.91;4485775;32;19973;-93
2022/07/23 10:38:52;;;;;;;;;;;;;;;43.01;61.42;99451.84;4485827;32;20048;-93
2022/07/23 10:41:20;;;;;;;;;;;;;;;43.03;61.43;99445.03;4472436;32;20007;-92
2022/07/23 10:43:45;;;;;;;;;;;;;;;43.11;61.43;99441.78;4485538;32;20003;-92
2022/07/23 10:46:21;;;;;;;;;;;;;;;43.23;61.43;99438.78;4472368;32;20352;-93
2022/07/23 10:48:46;;;;;;;;;;;;;;;43.38;61.45;99433.38;4484691;32;20042;-91
2022/07/23 10:51:13;;;;;;;;;;;;;;;43.51;61.45;99434.75;4471640;32;20020;-90
2022/07/23 10:53:50;;;;;;;;;;;;;;;43.54;61.45;99438.84;4471952;32;19981;-91
2022/07/23 10:56:16;;;;;;;;;;;;;;;43.61;61.45;99429.28;4484685;32;20664;-91
2022/07/23 10:58:48;;;;;;;;;;;;;;;43.71;61.46;99426.56;4484647;32;20049;-91
2022/07/23 11:01:35;;;;;;;;;;;;;;;43.93;61.47;99428.19;4485100;32;20041;-91
2022/07/23 11:04:00;;;;;;;;;;;;;;;44.01;61.48;99420.25;4471431;32;19981;-90
2022/07/23 11:06:45;;;;;;;;;;;;;;;44.18;61.48;99406.25;4484739;32;19977;-91
2022/07/23 11:09:29;;;;;;;;;;;;;;;44.15;61.47;99406.00;4484535;32;20564;-91
2022/07/23 11:12:10;;;;;;;;;;;;;;;44.06;61.47;99414.75;4484409;32;20011;-90
2022/07/23 11:14:54;;;;;;;;;;;;;;;44.12;61.47;99404.63;4484218;32;20017;-90
2022/07/23 11:17:19;;;;;;;;;;;;;;;44.08;61.47;99395.31;4485680;31;20032;-91
2022/07/23 11:20:12;;;;;;;;;;;;;;;44.25;61.49;99395.81;4471567;32;20003;-90
2022/07/23 11:22:43;;;;;;;;;;;;;;;44.40;61.49;99397.69;4481040;32;19992;-92
2022/07/23 11:25:12;;;;;;;;;;;;;;;44.43;61.50;99390.81;4484513;32;19995;-90
2022/07/23 11:27:41;;;;;;;;;;;;;;;44.30;61.48;99390.31;4485797;31;19987;-91
2022/07/23 11:30:07;;;;;;;;;;;;;;;44.31;61.48;99391.97;4485475;32;20051;-91
2022/07/23 11:32:34;;;;;;;;;;;;;;;44.28;61.49;99391.69;4487158;32;19984;-90
2022/07/23 11:35:00;;;;;;;;;;;;;;;44.47;61.49;99389.19;4488378;31;19995;-90
2022/07/23 11:37:28;;;;;;;;;;;;;;;44.63;61.50;99382.53;4487028;32;19972;-91
2022/07/23 11:39:56;;;;;;;;;;;;;;;44.52;61.49;99381.75;4488375;32;20011;-91
2022/07/23 11:42:23;;;;;;;;;;;;;;;44.42;61.50;99381.75;4473708;32;20008;-91
2022/07/23 11:44:48;;;;;;;;;;;;;;;44.24;61.48;99379.62;4473901;32;19994;-90
2022/07/23 11:47:13;;;;;;;;;;;;;;;44.08;61.47;99359.66;4473244;32;19981;-90
2022/07/23 11:49:38;;;;;;;;;;;;;;;44.08;61.47;99371.44;4486341;32;20001;-91
2022/07/23 11:52:10;;;;;;;;;;;;;;;44.49;61.49;99362.31;4472846;32;22255;-91
2022/07/23 11:54:55;;;;;;;;;;;;;;;44.64;61.50;99356.72;4473078;32;19988;-92
2022/07/23 11:57:24;;;;;;;;;;;;;;;44.78;61.51;99357.75;4473439;32;20017;-92
2022/07/23 11:59:50;;;;;;;;;;;;;;;44.70;61.50;99355.56;4487735;31;19984;-91
2022/07/23 12:02:15;;;;;;;;;;;;;;;44.60;61.50;99355.66;4486853;32;20422;-91
2022/07/23 12:04:41;;;;;;;;;;;;;;;44.46;61.49;99347.16;4487199;32;20040;-91
2022/07/23 12:07:25;;;;;;;;;;;;;;;44.29;61.48;99352.19;4488296;32;20298;-90
2022/07/23 12:09:50;;;;;;;;;;;;;;;44.33;61.49;99345.84;4487782;31;19995;-90
2022/07/23 12:12:15;;;;;;;;;;;;;;;44.40;61.50;99346.34;4495817;31;19977;-91
2022/07/23 12:14:48;;;;;;;;;;;;;;;44.43;61.50;99339.47;4494021;32;20016;-91
2022/07/23 12:17:13;;;;;;;;;;;;;;;44.57;61.49;99335.06;4486975;32;19989;-89
2022/07/23 12:19:38;;;;;;;;;;;;;;;44.57;61.50;99337.00;4487357;32;20021;-89
2022/07/23 12:22:04;;;;;;;;;;;;;;;43.90;61.47;99341.81;4486648;32;19980;-90
2022/07/23 12:24:29;;;;;;;;;;;;;;;43.49;61.46;99330.87;4486611;32;19989;-89
2022/07/23 12:27:07;;;;;;;;;;;;;;;43.42;61.45;99338.56;4473077;32;19977;-90
2022/07/23 12:29:36;;;;;;;;;;;;;;;43.65;61.46;99339.91;4473315;32;20126;-89
2022/07/23 12:32:01;;;;;;;;;;;;;;;43.91;61.47;99320.72;4486223;32;19984;-91
2022/07/23 12:34:26;;;;;;;;;;;;;;;44.15;61.48;99323.69;4486400;31;20324;-91
2022/07/23 12:36:51;;;;;;;;;;;;;;;44.30;61.48;99318.16;4486355;32;19981;-91
2022/07/23 12:39:32;;;;;;;;;;;;;;;44.58;61.51;99317.50;4472740;32;20015;-91
2022/07/23 12:41:57;;;;;;;;;;;;;;;44.68;61.51;99314.69;4472162;32;20010;-91
2022/07/23 12:44:22;;;;;;;;;;;;;;;44.47;61.49;99315.06;4485946;32;19973;-91